Time;durP1;ratioP1;P1;durP2;ratioP2;P2;SDS_P1;SDS_P2;PMS_P1;PMS_P2;Temp;Humidity;BMP_temperature;BMP_pressure;BME280_temperature;BME280_humidity;BME280_pressure;Samples;Min_cycle;Max_cycle;Signal;HPM_P1;HPM_P2
2023/06/10 00:01:55;;;;;;;11.07;5.47;;;18.90;99.90;;;;;;5080841;28;20056;-75
2023/06/10 00:04:21;;;;;;;9.82;6.03;;;18.80;99.90;;;;;;5056898;28;20101;-74
2023/06/10 00:06:48;;;;;;;14.05;6.88;;;18.90;99.90;;;;;;5079829;28;20020;-75
2023/06/10 00:09:14;;;;;;;18.65;7.10;;;18.80;99.90;;;;;;5083346;28;20040;-74
2023/06/10 00:11:40;;;;;;;16.63;6.20;;;18.90;99.90;;;;;;5078164;28;20086;-75
2023/06/10 00:14:07;;;;;;;12.90;6.78;;;19.00;99.90;;;;;;5074705;28;20040;-75
2023/06/10 00:16:33;;;;;;;10.48;8.18;;;19.00;99.90;;;;;;5079947;28;20138;-75
2023/06/10 00:19:03;;;;;;;11.68;7.65;;;19.10;99.90;;;;;;5082577;28;20538;-74
2023/06/10 00:21:36;;;;;;;13.52;7.68;;;19.20;99.90;;;;;;5082050;28;20475;-75
2023/06/10 00:24:05;;;;;;;13.70;8.00;;;19.20;99.90;;;;;;5083361;28;20028;-75
2023/06/10 00:26:31;;;;;;;20.25;7.97;;;19.20;99.90;;;;;;5075265;28;20023;-74
2023/06/10 00:28:56;;;;;;;20.45;9.40;;;19.20;99.90;;;;;;5084350;28;20032;-75
2023/06/10 00:31:22;;;;;;;13.83;7.87;;;19.30;99.90;;;;;;5082668;28;20054;-75
2023/06/10 00:33:47;;;;;;;12.50;8.10;;;19.20;99.90;;;;;;5072742;28;20733;-75
2023/06/10 00:36:13;;;;;;;15.33;7.70;;;19.10;99.90;;;;;;5061636;28;20035;-75
2023/06/10 00:38:40;;;;;;;12.10;7.93;;;19.20;99.90;;;;;;5065992;28;20036;-75
2023/06/10 00:41:06;;;;;;;12.82;8.48;;;19.10;99.90;;;;;;5065770;28;20032;-75
2023/06/10 00:43:32;;;;;;;12.43;8.30;;;19.00;99.90;;;;;;5064435;28;20032;-74
2023/06/10 00:45:58;;;;;;;19.10;9.10;;;19.00;99.90;;;;;;5060657;28;20037;-75
2023/06/10 00:48:24;;;;;;;15.50;7.78;;;19.10;99.90;;;;;;5074751;28;20074;-74
2023/06/10 00:50:50;;;;;;;;;;;19.00;99.90;;;;;;5080204;28;20023;-75
2023/06/10 00:53:16;;;;;;;15.38;7.35;;;19.00;99.90;;;;;;5080586;28;20261;-75
2023/06/10 00:55:42;;;;;;;8.95;6.82;;;19.10;99.90;;;;;;5073320;28;20016;-74
2023/06/10 00:58:08;;;;;;;8.68;6.03;;;19.00;99.90;;;;;;5074457;28;20032;-74
2023/06/10 01:00:33;;;;;;;8.95;5.78;;;18.70;99.90;;;;;;5085906;28;20479;-74
2023/06/10 01:02:59;;;;;;;8.13;6.07;;;18.60;99.90;;;;;;5076952;28;20497;-75
2023/06/10 01:05:25;;;;;;;10.27;5.57;;;18.50;99.90;;;;;;5075271;28;20449;-75
2023/06/10 01:08:00;;;;;;;9.98;5.72;;;18.70;99.90;;;;;;5086897;28;20100;-74
2023/06/10 01:10:34;;;;;;;11.85;6.00;;;18.90;99.90;;;;;;5081818;28;20076;-74
2023/06/10 01:13:06;;;;;;;8.48;4.45;;;18.70;99.90;;;;;;5078643;28;20151;-74
2023/06/10 01:15:33;;;;;;;8.93;4.60;;;18.70;99.90;;;;;;5079211;28;20021;-74
2023/06/10 01:18:01;;;;;;;12.65;5.20;;;18.70;99.90;;;;;;5081753;28;20081;-75
2023/06/10 01:20:28;;;;;;;6.82;4.95;;;18.90;99.90;;;;;;5062993;28;20036;-75
2023/06/10 01:22:54;;;;;;;7.38;4.32;;;18.90;99.90;;;;;;5081942;28;20020;-75
2023/06/10 01:25:27;;;;;;;8.13;4.60;;;18.90;99.90;;;;;;5085182;28;20062;-75
2023/06/10 01:28:02;;;;;;;6.63;4.82;;;19.00;99.90;;;;;;5084957;28;20028;-75
2023/06/10 01:30:33;;;;;;;15.85;5.32;;;18.90;99.90;;;;;;5077804;28;20039;-75
2023/06/10 01:33:01;;;;;;;7.53;5.82;;;18.90;99.90;;;;;;5050597;28;20058;-75
2023/06/10 01:35:30;;;;;;;10.05;5.07;;;18.90;99.90;;;;;;5086121;28;20032;-75
2023/06/10 01:37:58;;;;;;;12.13;4.93;;;18.90;99.90;;;;;;5080094;28;20116;-74
2023/06/10 01:40:25;;;;;;;6.85;4.95;;;18.90;99.90;;;;;;5080911;28;20058;-74
2023/06/10 01:42:52;;;;;;;15.82;7.05;;;19.00;99.90;;;;;;5078481;28;20028;-74
2023/06/10 01:45:17;;;;;;;;;;;19.00;99.90;;;;;;5080776;28;20056;-74
2023/06/10 01:47:43;;;;;;;9.27;5.43;;;19.00;99.90;;;;;;5084790;28;20366;-74
2023/06/10 01:50:09;;;;;;;10.17;5.33;;;19.00;99.90;;;;;;5082792;28;20027;-74
2023/06/10 01:52:34;;;;;;;7.35;4.70;;;18.90;99.90;;;;;;5083640;28;20103;-74
2023/06/10 01:55:00;;;;;;;8.80;4.90;;;18.80;99.90;;;;;;5080115;28;20501;-75
2023/06/10 01:57:26;;;;;;;10.93;5.67;;;18.80;99.90;;;;;;5088607;28;20395;-75
2023/06/10 01:59:51;;;;;;;10.83;5.67;;;18.80;99.90;;;;;;5080511;28;20036;-75
2023/06/10 02:02:17;;;;;;;8.97;5.50;;;18.80;99.90;;;;;;5083458;28;20085;-74
2023/06/10 02:04:43;;;;;;;13.47;5.13;;;18.90;99.90;;;;;;5084098;28;20024;-75
2023/06/10 02:07:08;;;;;;;9.18;5.57;;;18.80;99.90;;;;;;5080514;28;20020;-74
2023/06/10 02:09:36;;;;;;;9.37;5.47;;;18.80;99.90;;;;;;5079937;28;20047;-74
2023/06/10 02:12:06;;;;;;;9.73;5.13;;;18.80;99.90;;;;;;5075727;28;20031;-74
2023/06/10 02:14:33;;;;;;;9.95;5.50;;;18.60;99.90;;;;;;5085715;28;20693;-75
2023/06/10 02:16:58;;;;;;;6.60;4.82;;;18.70;99.90;;;;;;5081383;28;20055;-75
2023/06/10 02:19:26;;;;;;;9.37;5.30;;;18.80;99.90;;;;;;5088256;28;20035;-75
2023/06/10 02:21:52;;;;;;;10.90;5.13;;;18.90;99.90;;;;;;5078789;28;20051;-75
2023/06/10 02:24:18;;;;;;;13.40;5.33;;;18.70;99.90;;;;;;5081333;28;20056;-75
2023/06/10 02:26:43;;;;;;;9.13;4.63;;;18.60;99.90;;;;;;5081983;28;20375;-74
2023/06/10 02:29:09;;;;;;;10.17;5.20;;;18.50;99.90;;;;;;5086168;28;20504;-74
2023/06/10 02:31:35;;;;;;;8.13;4.65;;;18.60;99.90;;;;;;5082379;28;20284;-74
2023/06/10 02:34:01;;;;;;;8.15;4.53;;;18.70;99.90;;;;;;5081646;28;20883;-74
2023/06/10 02:36:27;;;;;;;9.38;5.03;;;18.60;99.90;;;;;;5082178;28;20019;-75
2023/06/10 02:38:53;;;;;;;10.93;4.55;;;18.60;99.90;;;;;;5082256;28;20040;-75
2023/06/10 02:41:19;;;;;;;9.30;5.30;;;18.60;99.90;;;;;;5079618;28;20028;-75
2023/06/10 02:43:44;;;;;;;11.02;5.15;;;18.70;99.90;;;;;;5082923;28;20477;-74
2023/06/10 02:46:10;;;;;;;10.77;4.60;;;18.80;99.90;;;;;;5077859;28;20086;-75
2023/06/10 02:48:46;;;;;;;7.30;3.97;;;18.70;99.90;;;;;;5083819;28;20035;-75
2023/06/10 02:51:11;;;;;;;11.60;6.03;;;18.70;99.90;;;;;;5082193;28;20443;-74
2023/06/10 02:53:37;;;;;;;12.50;4.40;;;18.80;99.90;;;;;;5083027;28;20039;-75
2023/06/10 02:56:03;;;;;;;15.25;5.15;;;18.60;99.90;;;;;;5083307;28;20078;-75
2023/06/10 02:58:29;;;;;;;9.63;5.25;;;18.60;99.90;;;;;;5081320;28;20031;-75
2023/06/10 03:00:54;;;;;;;6.70;4.10;;;18.70;99.90;;;;;;5083511;28;20454;-75
2023/06/10 03:03:22;;;;;;;9.40;4.70;;;18.80;99.90;;;;;;5078674;28;20025;-75
2023/06/10 03:05:48;;;;;;;15.13;4.95;;;18.80;99.90;;;;;;5080545;28;20033;-75
2023/06/10 03:08:13;;;;;;;16.10;5.80;;;18.90;99.90;;;;;;5086472;28;20088;-74
2023/06/10 03:10:39;;;;;;;12.57;5.27;;;18.90;99.90;;;;;;5086646;28;20514;-74
2023/06/10 03:13:05;;;;;;;10.57;5.20;;;18.80;99.90;;;;;;5085233;28;20020;-74
2023/06/10 03:15:32;;;;;;;12.30;5.40;;;18.90;99.90;;;;;;5084144;28;20027;-74
2023/06/10 03:18:02;;;;;;;9.98;5.40;;;18.80;99.90;;;;;;5080747;28;20024;-75
2023/06/10 03:20:28;;;;;;;12.15;5.47;;;18.70;99.90;;;;;;5083947;28;20028;-75
2023/06/10 03:22:54;;;;;;;14.20;5.53;;;18.80;99.90;;;;;;5084826;28;20032;-75
2023/06/10 03:25:20;;;;;;;7.47;4.80;;;18.80;99.90;;;;;;5081017;28;20039;-75
2023/06/10 03:27:46;;;;;;;8.65;5.05;;;18.80;99.90;;;;;;5081024;28;20294;-74
2023/06/10 03:30:13;;;;;;;9.70;6.00;;;18.70;99.90;;;;;;5088518;28;20067;-74
2023/06/10 03:32:40;;;;;;;12.20;5.68;;;18.50;99.90;;;;;;5087337;28;20024;-74
2023/06/10 03:35:07;;;;;;;11.25;5.20;;;18.50;99.90;;;;;;5083017;28;20036;-75
2023/06/10 03:37:32;;;;;;;8.25;4.55;;;18.60;99.90;;;;;;5077408;28;20021;-75
2023/06/10 03:39:58;;;;;;;8.40;4.87;;;18.60;99.90;;;;;;5083390;28;20508;-74
2023/06/10 03:42:23;;;;;;;11.47;5.40;;;18.60;99.90;;;;;;5081190;28;20464;-75
2023/06/10 03:44:49;;;;;;;17.70;4.90;;;18.70;99.90;;;;;;5081335;28;20028;-75
2023/06/10 03:47:15;;;;;;;11.50;4.80;;;18.70;99.90;;;;;;5082467;28;20436;-74
2023/06/10 03:49:41;;;;;;;10.88;4.38;;;18.80;99.90;;;;;;5084036;28;20025;-75
2023/06/10 03:52:07;;;;;;;8.53;4.80;;;18.70;99.90;;;;;;5078661;28;20561;-74
2023/06/10 03:54:34;;;;;;;9.23;4.73;;;18.80;99.90;;;;;;5081485;28;20036;-75
2023/06/10 03:57:00;;;;;;;12.52;6.50;;;18.80;99.90;;;;;;5087128;28;20024;-75
2023/06/10 03:59:26;;;;;;;10.52;4.90;;;18.40;99.90;;;;;;5086491;28;20407;-75
2023/06/10 04:01:51;;;;;;;8.80;4.50;;;18.40;99.90;;;;;;5083654;28;20042;-74
2023/06/10 04:04:17;;;;;;;8.83;4.07;;;18.60;99.90;;;;;;5078735;28;20469;-74
2023/06/10 04:06:46;;;;;;;4.90;4.40;;;18.50;99.90;;;;;;5077373;28;20459;-75
2023/06/10 04:09:12;;;;;;;7.03;4.18;;;18.40;99.90;;;;;;5081507;28;20325;-74
2023/06/10 04:11:37;;;;;;;7.53;4.28;;;18.40;99.90;;;;;;5079251;28;20056;-74
2023/06/10 04:14:03;;;;;;;8.93;3.77;;;18.40;99.90;;;;;;5079131;28;20472;-74
2023/06/10 04:16:28;;;;;;;11.63;4.97;;;18.50;99.90;;;;;;5084409;28;20089;-74
2023/06/10 04:18:55;;;;;;;5.80;4.13;;;18.40;99.90;;;;;;5081857;28;20030;-75
2023/06/10 04:21:21;;;;;;;6.80;4.45;;;18.40;99.90;;;;;;5079213;28;20020;-74
2023/06/10 04:23:47;;;;;;;7.32;4.05;;;18.50;99.90;;;;;;5081548;28;20036;-75
2023/06/10 04:26:13;;;;;;;12.27;4.72;;;18.50;99.90;;;;;;5082558;28;20517;-75
2023/06/10 04:28:38;;;;;;;5.13;3.70;;;18.50;99.90;;;;;;5063444;28;20036;-76
2023/06/10 04:31:04;;;;;;;5.60;3.63;;;18.50;99.90;;;;;;5077792;28;20040;-75
2023/06/10 04:33:30;;;;;;;8.27;3.80;;;18.50;99.90;;;;;;5076249;28;20917;-75
2023/06/10 04:35:56;;;;;;;9.82;3.55;;;18.50;99.90;;;;;;5078732;28;20032;-76
2023/06/10 04:38:22;;;;;;;7.00;3.87;;;18.50;99.90;;;;;;5082245;28;20054;-76
2023/06/10 04:40:48;;;;;;;13.87;4.10;;;18.40;99.90;;;;;;5075814;28;20062;-75
2023/06/10 04:43:13;;;;;;;5.20;3.10;;;18.40;99.90;;;;;;5076738;28;20082;-75
2023/06/10 04:45:39;;;;;;;7.90;3.30;;;18.50;99.90;;;;;;5082730;28;20492;-76
2023/06/10 04:48:05;;;;;;;3.80;3.03;;;18.40;99.90;;;;;;5073937;28;20293;-76
2023/06/10 04:50:32;;;;;;;9.13;4.65;;;18.50;99.90;;;;;;5077956;28;20039;-75
2023/06/10 04:52:58;;;;;;;4.38;3.30;;;18.50;99.90;;;;;;5075221;28;20035;-75
2023/06/10 04:55:25;;;;;;;8.85;3.30;;;18.60;99.90;;;;;;5063146;28;20024;-77
2023/06/10 04:57:51;;;;;;;6.85;3.70;;;18.60;99.90;;;;;;5077991;28;20081;-76
2023/06/10 05:00:17;;;;;;;6.05;3.55;;;18.60;99.90;;;;;;5076840;28;20024;-76
2023/06/10 05:02:42;;;;;;;10.13;4.60;;;18.70;99.90;;;;;;5077194;28;20024;-75
2023/06/10 05:05:08;;;;;;;9.10;3.90;;;18.80;99.90;;;;;;5076435;28;20039;-76
2023/06/10 05:07:34;;;;;;;11.20;4.53;;;18.90;99.90;;;;;;5076978;28;20837;-76
2023/06/10 05:10:00;;;;;;;7.32;3.75;;;18.90;99.90;;;;;;5076887;28;20036;-76
2023/06/10 05:12:26;;;;;;;6.87;3.73;;;18.90;99.90;;;;;;5081177;28;20050;-76
2023/06/10 05:14:51;;;;;;;7.47;3.83;;;18.80;99.90;;;;;;5076602;28;20298;-77
2023/06/10 05:17:17;;;;;;;9.47;4.07;;;18.70;99.90;;;;;;5078099;28;20089;-77
2023/06/10 05:19:44;;;;;;;5.72;3.53;;;18.80;99.90;;;;;;5078129;28;20043;-77
2023/06/10 05:22:09;;;;;;;7.70;4.13;;;18.80;99.90;;;;;;5080651;28;20039;-77
2023/06/10 05:24:35;;;;;;;8.50;3.83;;;18.90;99.90;;;;;;5075650;28;20024;-77
2023/06/10 05:27:00;;;;;;;7.87;4.00;;;19.00;99.90;;;;;;5063767;28;20480;-75
2023/06/10 05:29:27;;;;;;;10.83;5.50;;;18.90;99.90;;;;;;5079063;28;20065;-76
2023/06/10 05:31:53;;;;;;;12.73;4.18;;;19.00;99.90;;;;;;5075607;28;20024;-77
2023/06/10 05:34:19;;;;;;;8.52;4.55;;;18.90;99.90;;;;;;5076634;28;20044;-77
2023/06/10 05:36:44;;;;;;;8.33;4.93;;;18.90;99.90;;;;;;5074998;28;20499;-78
2023/06/10 05:39:10;;;;;;;11.63;4.97;;;18.90;99.90;;;;;;5058642;28;20032;-76
2023/06/10 05:41:36;;;;;;;9.75;4.75;;;19.10;99.90;;;;;;5075461;28;20411;-77
2023/06/10 05:44:01;;;;;;;7.43;4.40;;;19.20;99.90;;;;;;5075274;28;20898;-76
2023/06/10 05:46:27;;;;;;;17.53;5.73;;;19.50;99.90;;;;;;5078108;28;20082;-77
2023/06/10 05:48:52;;;;;;;8.00;4.77;;;19.40;99.90;;;;;;5061390;28;20119;-75
2023/06/10 05:51:18;;;;;;;8.00;4.60;;;20.10;99.90;;;;;;5074594;28;20492;-75
2023/06/10 05:53:46;;;;;;;11.33;4.03;;;21.70;99.90;;;;;;5076044;28;20046;-74
2023/06/10 05:56:12;;;;;;;5.75;3.40;;;23.10;99.90;;;;;;5077897;28;20032;-74
2023/06/10 05:58:38;;;;;;;14.98;3.70;;;24.10;99.90;;;;;;5061044;28;20499;-74
2023/06/10 06:01:03;;;;;;;9.65;3.85;;;24.10;99.90;;;;;;5077835;28;20056;-76
2023/06/10 06:03:29;;;;;;;9.10;2.93;;;24.90;99.90;;;;;;5078252;28;20487;-75
2023/06/10 06:05:55;;;;;;;9.15;3.92;;;24.80;99.90;;;;;;5077180;28;20372;-75
2023/06/10 06:08:20;;;;;;;5.13;3.90;;;23.40;99.90;;;;;;5076085;28;20032;-74
2023/06/10 06:10:47;;;;;;;14.68;3.65;;;23.30;99.90;;;;;;5080113;28;20032;-77
2023/06/10 06:13:13;;;;;;;6.68;4.07;;;22.80;99.90;;;;;;5080695;28;20040;-76
2023/06/10 06:15:39;;;;;;;10.13;4.20;;;23.30;99.90;;;;;;5075271;28;20103;-81
2023/06/10 06:18:04;;;;;;;8.75;4.38;;;23.80;99.90;;;;;;5079553;28;20031;-77
2023/06/10 06:20:30;;;;;;;6.32;4.10;;;23.90;99.90;;;;;;5080182;28;20027;-73
2023/06/10 06:22:55;;;;;;;8.73;4.38;;;23.20;99.90;;;;;;5076653;28;20047;-76
2023/06/10 06:25:21;;;;;;;9.77;5.20;;;23.90;99.90;;;;;;5076586;28;20034;-76
2023/06/10 06:27:46;;;;;;;7.70;5.40;;;23.30;99.90;;;;;;5066588;28;20059;-81
2023/06/10 06:30:12;;;;;;;9.02;4.53;;;22.60;99.90;;;;;;5061788;28;20080;-77
2023/06/10 06:32:38;;;;;;;7.35;4.75;;;22.60;99.90;;;;;;5076521;28;20107;-75
2023/06/10 06:35:07;;;;;;;10.38;5.10;;;22.20;99.90;;;;;;5078693;28;20040;-75
2023/06/10 06:37:34;;;;;;;9.57;4.88;;;22.60;99.90;;;;;;5078067;28;20028;-73
2023/06/10 06:40:00;;;;;;;5.57;4.35;;;22.30;99.90;;;;;;5079900;28;20039;-74
2023/06/10 06:42:26;;;;;;;5.40;4.20;;;22.80;99.90;;;;;;5081010;28;20031;-74
2023/06/10 06:44:51;;;;;;;7.93;4.85;;;23.10;99.90;;;;;;5074049;28;20047;-73
2023/06/10 06:47:20;;;;;;;9.53;4.60;;;22.80;99.90;;;;;;5063729;28;20046;-75
2023/06/10 06:49:47;;;;;;;7.38;4.00;;;22.60;99.90;;;;;;5082610;28;20265;-76
2023/06/10 06:52:13;;;;;;;5.70;3.85;;;23.00;99.90;;;;;;5081145;28;20028;-77
2023/06/10 06:54:39;;;;;;;9.40;3.42;;;23.40;99.90;;;;;;5081691;28;20055;-73
2023/06/10 06:57:05;;;;;;;9.63;3.97;;;24.00;99.90;;;;;;5083562;28;20028;-74
2023/06/10 06:59:31;;;;;;;6.85;3.50;;;26.10;99.90;;;;;;5076561;28;20043;-74
2023/06/10 07:01:56;;;;;;;5.03;2.92;;;26.60;99.90;;;;;;5076762;28;20220;-78
2023/06/10 07:04:22;;;;;;;5.03;2.90;;;25.50;99.90;;;;;;5067087;28;20039;-78
2023/06/10 07:06:48;;;;;;;6.10;3.35;;;25.00;99.90;;;;;;5079088;28;20029;-78
2023/06/10 07:09:14;;;;;;;13.32;3.85;;;25.20;99.90;;;;;;5080605;28;20032;-73
2023/06/10 07:11:40;;;;;;;8.93;3.70;;;24.50;99.90;;;;;;5061379;28;20051;-78
2023/06/10 07:14:06;;;;;;;5.00;3.45;;;23.80;99.90;;;;;;5079948;28;20420;-72
2023/06/10 07:16:31;;;;;;;7.50;3.13;;;24.20;99.90;;;;;;5081263;28;20111;-74
2023/06/10 07:18:57;;;;;;;6.18;3.47;;;24.60;99.90;;;;;;5060925;28;20491;-74
2023/06/10 07:21:23;;;;;;;6.05;3.30;;;24.30;99.90;;;;;;5083251;28;20028;-73
2023/06/10 07:23:49;;;;;;;9.80;3.63;;;24.40;99.90;;;;;;5079176;28;20113;-74
2023/06/10 07:26:15;;;;;;;9.15;3.15;;;24.50;99.90;;;;;;5079883;28;20082;-78
2023/06/10 07:28:41;;;;;;;7.30;4.63;;;24.40;99.90;;;;;;5080006;28;20028;-76
2023/06/10 07:31:07;;;;;;;6.63;3.25;;;23.60;99.90;;;;;;5081621;28;20062;-78
2023/06/10 07:33:33;;;;;;;5.32;3.00;;;23.50;99.90;;;;;;5073377;28;20044;-76
2023/06/10 07:35:59;;;;;;;7.22;3.28;;;22.90;99.90;;;;;;5078000;28;20030;-76
2023/06/10 07:38:25;;;;;;;7.28;3.45;;;23.00;99.90;;;;;;5082067;28;20027;-77
2023/06/10 07:40:51;;;;;;;5.45;3.78;;;23.30;99.90;;;;;;5080775;28;20036;-75
2023/06/10 07:43:16;;;;;;;6.23;3.17;;;23.70;99.90;;;;;;5076392;28;20024;-74
2023/06/10 07:45:43;;;;;;;9.07;3.90;;;23.70;99.90;;;;;;5079215;28;20024;-73
2023/06/10 07:48:08;;;;;;;;;;;24.00;99.90;;;;;;5078759;28;20040;-70
2023/06/10 07:50:34;;;;;;;9.20;3.33;;;23.90;99.90;;;;;;5078523;28;19986;-74
2023/06/10 07:53:00;;;;;;;14.20;7.47;;;24.00;99.90;;;;;;5078245;28;20044;-73
2023/06/10 07:55:26;;;;;;;9.70;3.83;;;24.10;99.90;;;;;;5059060;28;20072;-72
2023/06/10 07:57:52;;;;;;;6.93;2.90;;;24.10;99.90;;;;;;5079294;28;20046;-66
2023/06/10 08:00:18;;;;;;;;;;;23.80;99.90;;;;;;5087747;28;20032;-64
2023/06/10 08:02:44;;;;;;;13.10;3.83;;;24.20;99.90;;;;;;5071932;28;20330;-68
2023/06/10 08:05:10;;;;;;;6.75;3.00;;;24.40;99.90;;;;;;5076002;28;20025;-64
2023/06/10 08:07:35;;;;;;;40.15;9.15;;;24.90;99.90;;;;;;5080340;28;20032;-66
2023/06/10 08:10:02;;;;;;;15.80;4.75;;;24.90;99.90;;;;;;5078321;28;20054;-69
2023/06/10 08:12:27;;;;;;;43.80;11.00;;;25.10;99.90;;;;;;5074710;28;20035;-70
2023/06/10 08:14:54;;;;;;;109.85;23.50;;;25.40;99.90;;;;;;5073239;28;20040;-67
2023/06/10 08:17:20;;;;;;;99.20;24.08;;;25.70;99.90;;;;;;5076691;28;20710;-68
2023/06/10 08:19:46;;;;;;;49.00;12.65;;;26.10;99.90;;;;;;5077860;28;20040;-68
2023/06/10 08:22:12;;;;;;;55.70;14.32;;;25.80;99.90;;;;;;5080609;28;20032;-66
2023/06/10 08:24:37;;;;;;;36.03;9.35;;;25.70;99.90;;;;;;5077711;28;20831;-70
2023/06/10 08:27:03;;;;;;;18.17;5.70;;;25.80;99.90;;;;;;5079429;28;20551;-71
2023/06/10 08:29:31;;;;;;;15.75;6.07;;;25.60;99.90;;;;;;5079046;28;20495;-70
2023/06/10 08:31:56;;;;;;;17.98;6.13;;;25.60;99.90;;;;;;5079657;28;20036;-73
2023/06/10 08:34:22;;;;;;;36.15;10.02;;;25.30;99.90;;;;;;5075996;28;20412;-72
2023/06/10 08:36:52;;;;;;;14.70;5.50;;;25.20;99.90;;;;;;5082360;28;20044;-72
2023/06/10 08:39:20;;;;;;;50.13;13.27;;;25.10;99.90;;;;;;5079073;28;20048;-68
2023/06/10 08:42:06;;;;;;;15.35;4.57;;;26.90;99.90;;;;;;5084637;28;20081;-72
2023/06/10 08:44:33;;;;;;;9.88;3.08;;;26.40;99.90;;;;;;5079378;28;20023;-72
2023/06/10 08:47:10;;;;;;;18.27;5.70;;;25.80;99.90;;;;;;5082951;28;20593;-70
2023/06/10 08:49:41;;;;;;;5.88;2.60;;;25.50;99.90;;;;;;5073320;28;20107;-77
2023/06/10 08:52:08;;;;;;;7.78;2.80;;;25.30;99.90;;;;;;5083096;28;20578;-75
2023/06/10 08:54:37;;;;;;;19.10;5.85;;;25.20;99.90;;;;;;5074292;28;20224;-75
2023/06/10 08:57:08;;;;;;;3.70;3.17;;;25.20;99.90;;;;;;5066223;28;20026;-75
2023/06/10 08:59:34;;;;;;;10.00;4.05;;;25.30;99.90;;;;;;5059079;28;20496;-75
2023/06/10 09:02:02;;;;;;;12.23;4.63;;;26.80;99.90;;;;;;5071315;28;20030;-74
2023/06/10 09:04:28;;;;;;;10.82;4.88;;;26.60;99.90;;;;;;5062099;28;20109;-76
2023/06/10 09:06:55;;;;;;;6.35;4.03;;;26.50;99.90;;;;;;5086510;28;20111;-75
2023/06/10 09:09:22;;;;;;;11.90;4.60;;;26.30;99.90;;;;;;5073865;28;20025;-76
2023/06/10 09:11:48;;;;;;;5.47;3.75;;;26.20;99.90;;;;;;5078079;28;20099;-76
2023/06/10 09:14:14;;;;;;;7.45;4.00;;;26.00;99.90;;;;;;5080928;28;20575;-76
2023/06/10 09:16:40;;;;;;;7.93;4.30;;;25.90;99.90;;;;;;5077471;28;20061;-75
2023/06/10 09:19:09;;;;;;;3.63;2.20;;;26.40;99.90;;;;;;5074790;28;20055;-76
2023/06/10 09:21:35;;;;;;;5.07;2.90;;;26.60;99.90;;;;;;5077568;28;20031;-74
2023/06/10 09:24:02;;;;;;;3.35;2.20;;;26.60;99.90;;;;;;5079182;28;20035;-74
2023/06/10 09:26:29;;;;;;;8.13;3.70;;;27.20;99.90;;;;;;5074783;28;20023;-74
2023/06/10 09:29:03;;;;;;;9.30;4.28;;;27.70;99.30;;;;;;5076742;28;20044;-74
2023/06/10 09:31:29;;;;;;;9.50;4.30;;;29.10;97.00;;;;;;5074368;28;20111;-78
2023/06/10 09:34:10;;;;;;;3.60;2.42;;;30.60;90.10;;;;;;5074885;28;20618;-77
2023/06/10 09:36:37;;;;;;;4.53;2.40;;;31.70;86.60;;;;;;5078673;28;20508;-75
2023/06/10 09:39:03;;;;;;;7.07;4.40;;;30.50;92.90;;;;;;5079995;28;20039;-77
2023/06/10 09:41:39;;;;;;;6.03;4.07;;;29.80;93.80;;;;;;5083454;28;20076;-75
2023/06/10 09:44:15;;;;;;;2.92;2.50;;;28.90;96.60;;;;;;5072445;28;20036;-74
2023/06/10 09:46:41;;;;;;;4.80;3.03;;;28.30;98.80;;;;;;5072424;28;20029;-78
2023/06/10 09:49:07;;;;;;;7.00;2.88;;;27.90;99.90;;;;;;5076442;28;20063;-76
2023/06/10 09:51:33;;;;;;;6.07;3.05;;;27.70;99.70;;;;;;5077773;28;20032;-75
2023/06/10 09:54:01;;;;;;;6.93;2.50;;;27.60;99.20;;;;;;5058033;28;20111;-79
2023/06/10 09:56:37;;;;;;;8.32;2.67;;;27.30;99.90;;;;;;5073233;28;20565;-79
2023/06/10 09:59:05;;;;;;;8.00;3.05;;;27.10;99.90;;;;;;5072171;28;20474;-77
2023/06/10 10:01:33;;;;;;;6.15;3.55;;;27.10;99.90;;;;;;5076083;28;20025;-78
2023/06/10 10:03:58;;;;;;;5.10;3.22;;;26.90;99.90;;;;;;5076451;28;20056;-79
2023/06/10 10:06:25;;;;;;;7.82;3.30;;;26.80;99.90;;;;;;5083413;28;20399;-78
2023/06/10 10:08:51;;;;;;;5.50;3.08;;;26.50;99.90;;;;;;5074409;28;20424;-78
2023/06/10 10:11:19;;;;;;;6.00;3.75;;;26.30;99.90;;;;;;5078457;28;20366;-78
2023/06/10 10:13:49;;;;;;;7.15;3.72;;;26.10;99.90;;;;;;5081199;28;20031;-78
2023/06/10 10:16:19;;;;;;;4.75;3.10;;;25.80;99.90;;;;;;5084845;28;20051;-78
2023/06/10 10:18:55;;;;;;;7.80;3.63;;;25.60;99.90;;;;;;5079043;28;20107;-75
2023/06/10 10:21:26;;;;;;;9.38;3.40;;;25.60;99.90;;;;;;5082208;28;20085;-76
2023/06/10 10:24:09;;;;;;;5.03;3.63;;;25.60;99.90;;;;;;5077705;28;20028;-77
2023/06/10 10:26:37;;;;;;;5.85;3.47;;;25.80;99.90;;;;;;5082885;28;20037;-76
2023/06/10 10:29:22;;;;;;;7.80;3.42;;;25.80;99.90;;;;;;5088635;28;20036;-75
2023/06/10 10:31:53;;;;;;;8.38;3.55;;;25.70;99.90;;;;;;5076895;28;20024;-75
2023/06/10 10:34:41;;;;;;;7.20;3.15;;;25.70;99.90;;;;;;5081856;28;20063;-75
2023/06/10 10:37:07;;;;;;;9.02;4.00;;;25.80;99.90;;;;;;5077921;28;20499;-74
2023/06/10 10:39:34;;;;;;;6.55;3.72;;;25.90;99.90;;;;;;5082622;28;20032;-74
2023/06/10 10:42:03;;;;;;;4.97;3.80;;;25.90;99.90;;;;;;5080387;28;21918;-74
2023/06/10 10:44:29;;;;;;;9.02;3.65;;;25.60;99.90;;;;;;5083224;28;20487;-75
2023/06/10 10:46:56;;;;;;;5.05;3.58;;;25.60;99.90;;;;;;5085480;28;20085;-74
2023/06/10 10:49:24;;;;;;;4.38;3.45;;;25.60;99.90;;;;;;5079714;28;20408;-74
2023/06/10 10:51:58;;;;;;;5.70;3.60;;;25.30;99.90;;;;;;5087818;28;20519;-74
2023/06/10 10:54:35;;;;;;;6.93;3.95;;;25.60;99.90;;;;;;5089854;28;20036;-74
2023/06/10 10:57:13;;;;;;;;;;;25.70;99.90;;;;;;5077697;28;20032;-74
2023/06/10 10:59:48;;;;;;;6.15;3.40;;;26.00;99.90;;;;;;5085363;28;19913;-74
2023/06/10 11:02:32;;;;;;;6.13;3.22;;;26.00;99.90;;;;;;5082137;28;20020;-73
2023/06/10 11:04:58;;;;;;;6.18;3.67;;;25.90;99.90;;;;;;5060963;28;20522;-75
2023/06/10 11:07:30;;;;;;;4.85;3.10;;;26.30;99.90;;;;;;5080738;28;20074;-74
2023/06/10 11:10:00;;;;;;;5.88;3.03;;;26.10;99.90;;;;;;5077861;28;20508;-74
2023/06/10 11:12:26;;;;;;;8.10;3.20;;;26.20;99.90;;;;;;5081573;28;20035;-75
2023/06/10 11:14:57;;;;;;;;;;;26.10;99.90;;;;;;5081125;28;20036;-74
2023/06/10 11:17:23;;;;;;;6.75;3.88;;;26.30;99.90;;;;;;5082156;28;20369;-74
2023/06/10 11:19:49;;;;;;;4.00;3.28;;;26.40;99.90;;;;;;5082550;28;20048;-74
2023/06/10 11:22:18;;;;;;;4.53;2.85;;;26.30;99.90;;;;;;5080829;28;20028;-74
2023/06/10 11:24:51;;;;;;;6.65;3.15;;;26.30;99.90;;;;;;5081116;28;20027;-74
2023/06/10 11:27:22;;;;;;;5.45;2.90;;;26.60;99.90;;;;;;5081556;28;20036;-75
2023/06/10 11:30:07;;;;;;;10.57;4.82;;;26.70;99.90;;;;;;5076813;28;20112;-74
2023/06/10 11:32:34;;;;;;;3.28;2.85;;;26.70;99.90;;;;;;5080615;28;20739;-75
2023/06/10 11:35:03;;;;;;;4.20;2.80;;;26.70;99.90;;;;;;5076993;28;20499;-75
2023/06/10 11:37:28;;;;;;;4.57;3.45;;;26.70;99.90;;;;;;5083382;28;20096;-75
2023/06/10 11:39:55;;;;;;;8.82;3.45;;;26.70;99.90;;;;;;5077902;28;20109;-74
2023/06/10 11:42:22;;;;;;;5.20;3.03;;;26.50;99.90;;;;;;5077683;28;20115;-75
2023/06/10 11:44:52;;;;;;;5.18;3.17;;;26.40;99.90;;;;;;5075177;28;20099;-75
2023/06/10 11:47:19;;;;;;;3.60;3.08;;;26.40;99.90;;;;;;5080815;28;20522;-75
2023/06/10 11:49:46;;;;;;;4.28;3.38;;;26.10;99.90;;;;;;5073642;28;20398;-74
2023/06/10 11:52:12;;;;;;;3.83;3.17;;;26.40;99.90;;;;;;5084692;28;20070;-75
2023/06/10 11:54:38;;;;;;;3.60;3.05;;;26.40;99.90;;;;;;5080473;28;20496;-77
2023/06/10 11:57:05;;;;;;;;;;;26.40;99.90;;;;;;5073526;28;20085;-75
2023/06/10 11:59:30;;;;;;;6.03;3.22;;;26.70;99.90;;;;;;5082598;28;19935;-76
2023/06/10 12:01:56;;;;;;;8.68;3.70;;;26.60;99.90;;;;;;5077146;28;20332;-77
2023/06/10 12:04:22;;;;;;;7.97;3.47;;;26.50;99.90;;;;;;5084246;28;20414;-77
2023/06/10 12:06:50;;;;;;;9.85;4.28;;;26.60;99.90;;;;;;5078980;28;20024;-76
2023/06/10 12:09:20;;;;;;;2.90;2.60;;;26.50;99.90;;;;;;5066353;28;20040;-78
2023/06/10 12:11:48;;;;;;;6.85;2.75;;;26.30;99.90;;;;;;5078398;28;20037;-77
2023/06/10 12:14:14;;;;;;;4.80;3.60;;;26.40;99.90;;;;;;5078982;28;20041;-76
2023/06/10 12:16:39;;;;;;;5.90;3.90;;;26.60;99.90;;;;;;5080699;28;20016;-78
2023/06/10 12:19:06;;;;;;;6.30;2.85;;;26.40;99.90;;;;;;5079023;28;20089;-76
2023/06/10 12:21:35;;;;;;;5.93;3.08;;;26.30;99.90;;;;;;5068374;28;20027;-75
2023/06/10 12:24:05;;;;;;;4.72;2.92;;;26.50;99.90;;;;;;5076332;28;20047;-77
2023/06/10 12:26:42;;;;;;;4.97;2.97;;;26.30;99.90;;;;;;5072938;28;20058;-78
2023/06/10 12:29:17;;;;;;;;;;;26.20;99.90;;;;;;5081006;28;20036;-76
2023/06/10 12:31:56;;;;;;;7.93;3.33;;;26.10;99.90;;;;;;5072400;28;19919;-78
2023/06/10 12:34:37;;;;;;;8.80;3.13;;;26.10;99.90;;;;;;5080735;28;20562;-75
2023/06/10 12:37:14;;;;;;;4.90;2.80;;;26.40;99.90;;;;;;5078755;28;20039;-77
2023/06/10 12:39:41;;;;;;;;;;;26.40;99.90;;;;;;5078029;28;20123;-77
2023/06/10 12:42:09;;;;;;;9.70;3.40;;;26.40;99.90;;;;;;5081746;28;19923;-77
2023/06/10 12:44:39;;;;;;;13.63;3.38;;;26.30;99.90;;;;;;5079230;28;20051;-75
2023/06/10 12:47:09;;;;;;;9.25;3.17;;;26.40;99.90;;;;;;5077247;28;20029;-76